sensor_id;sensor_type;location;lat;lon;timestamp;P1;durP1;ratioP1;P2;durP2;ratioP2
37349;SDS011;23231;52.358;4.926;2022-11-11T00:00:26;14.55;;;7.45;;
37349;SDS011;23231;52.358;4.926;2022-11-11T00:05:27;15.73;;;7.10;;
37349;SDS011;23231;52.358;4.926;2022-11-11T00:10:28;20.42;;;8.73;;
37349;SDS011;23231;52.358;4.926;2022-11-11T00:15:29;14.02;;;7.38;;
37349;SDS011;23231;52.358;4.926;2022-11-11T00:20:30;17.60;;;8.07;;
37349;SDS011;23231;52.358;4.926;2022-11-11T00:25:52;17.00;;;8.80;;
37349;SDS011;23231;52.358;4.926;2022-11-11T00:30:59;21.77;;;8.70;;
37349;SDS011;23231;52.358;4.926;2022-11-11T00:36:04;17.23;;;9.50;;
37349;SDS011;23231;52.358;4.926;2022-11-11T00:41:05;18.40;;;9.88;;
37349;SDS011;23231;52.358;4.926;2022-11-11T00:46:05;23.85;;;11.07;;
37349;SDS011;23231;52.358;4.926;2022-11-11T00:51:25;24.10;;;11.48;;
37349;SDS011;23231;52.358;4.926;2022-11-11T00:56:25;26.52;;;13.32;;
37349;SDS011;23231;52.358;4.926;2022-11-11T01:01:26;31.50;;;14.32;;
37349;SDS011;23231;52.358;4.926;2022-11-11T01:06:26;29.98;;;14.50;;
37349;SDS011;23231;52.358;4.926;2022-11-11T01:11:27;24.73;;;14.82;;
37349;SDS011;23231;52.358;4.926;2022-11-11T01:16:27;29.40;;;15.95;;
37349;SDS011;23231;52.358;4.926;2022-11-11T01:21:28;30.52;;;17.10;;
37349;SDS011;23231;52.358;4.926;2022-11-11T01:26:28;30.88;;;16.92;;
37349;SDS011;23231;52.358;4.926;2022-11-11T01:31:29;32.58;;;18.45;;
37349;SDS011;23231;52.358;4.926;2022-11-11T01:36:29;34.53;;;18.13;;
37349;SDS011;23231;52.358;4.926;2022-11-11T01:41:30;37.88;;;20.40;;
37349;SDS011;23231;52.358;4.926;2022-11-11T01:46:34;37.15;;;19.23;;
37349;SDS011;23231;52.358;4.926;2022-11-11T01:56:58;39.63;;;20.75;;
37349;SDS011;23231;52.358;4.926;2022-11-11T02:02:21;42.45;;;20.70;;
37349;SDS011;23231;52.358;4.926;2022-11-11T02:07:24;44.35;;;20.95;;
37349;SDS011;23231;52.358;4.926;2022-11-11T02:12:25;44.15;;;21.30;;
37349;SDS011;23231;52.358;4.926;2022-11-11T02:17:45;45.80;;;22.42;;
37349;SDS011;23231;52.358;4.926;2022-11-11T02:22:57;44.95;;;22.85;;
37349;SDS011;23231;52.358;4.926;2022-11-11T02:28:00;45.42;;;23.00;;
37349;SDS011;23231;52.358;4.926;2022-11-11T02:33:03;49.70;;;22.85;;
37349;SDS011;23231;52.358;4.926;2022-11-11T02:38:03;42.90;;;22.52;;
37349;SDS011;23231;52.358;4.926;2022-11-11T02:43:07;43.22;;;22.30;;
37349;SDS011;23231;52.358;4.926;2022-11-11T02:48:07;47.60;;;22.15;;
37349;SDS011;23231;52.358;4.926;2022-11-11T02:53:07;39.28;;;20.55;;
37349;SDS011;23231;52.358;4.926;2022-11-11T02:58:08;45.78;;;22.67;;
37349;SDS011;23231;52.358;4.926;2022-11-11T03:03:09;51.42;;;23.33;;
37349;SDS011;23231;52.358;4.926;2022-11-11T03:08:09;46.33;;;22.50;;
37349;SDS011;23231;52.358;4.926;2022-11-11T03:13:10;44.95;;;22.27;;
37349;SDS011;23231;52.358;4.926;2022-11-11T03:18:10;47.20;;;23.20;;
37349;SDS011;23231;52.358;4.926;2022-11-11T03:23:12;47.03;;;22.25;;
37349;SDS011;23231;52.358;4.926;2022-11-11T03:33:14;43.03;;;22.08;;
37349;SDS011;23231;52.358;4.926;2022-11-11T03:38:15;46.75;;;23.52;;
37349;SDS011;23231;52.358;4.926;2022-11-11T03:43:23;45.22;;;21.65;;
37349;SDS011;23231;52.358;4.926;2022-11-11T03:48:26;48.50;;;23.13;;
37349;SDS011;23231;52.358;4.926;2022-11-11T03:53:28;45.75;;;22.60;;
37349;SDS011;23231;52.358;4.926;2022-11-11T03:58:29;46.63;;;24.35;;
37349;SDS011;23231;52.358;4.926;2022-11-11T04:03:29;47.78;;;23.13;;
37349;SDS011;23231;52.358;4.926;2022-11-11T04:08:48;48.50;;;23.77;;
37349;SDS011;23231;52.358;4.926;2022-11-11T04:14:11;48.00;;;23.92;;
37349;SDS011;23231;52.358;4.926;2022-11-11T04:19:31;47.55;;;23.90;;
37349;SDS011;23231;52.358;4.926;2022-11-11T04:24:50;49.53;;;23.60;;
37349;SDS011;23231;52.358;4.926;2022-11-11T04:30:09;45.67;;;22.42;;
37349;SDS011;23231;52.358;4.926;2022-11-11T04:35:11;45.88;;;24.50;;
37349;SDS011;23231;52.358;4.926;2022-11-11T04:40:13;48.60;;;24.15;;
37349;SDS011;23231;52.358;4.926;2022-11-11T04:45:32;54.15;;;23.80;;
37349;SDS011;23231;52.358;4.926;2022-11-11T04:55:40;50.38;;;24.70;;
37349;SDS011;23231;52.358;4.926;2022-11-11T05:00:59;49.40;;;23.17;;
37349;SDS011;23231;52.358;4.926;2022-11-11T05:06:00;48.90;;;22.52;;
37349;SDS011;23231;52.358;4.926;2022-11-11T05:11:20;52.55;;;24.27;;
37349;SDS011;23231;52.358;4.926;2022-11-11T05:16:22;50.00;;;23.77;;
37349;SDS011;23231;52.358;4.926;2022-11-11T05:21:51;44.72;;;22.40;;
37349;SDS011;23231;52.358;4.926;2022-11-11T05:26:52;48.17;;;23.15;;
37349;SDS011;23231;52.358;4.926;2022-11-11T05:31:53;46.35;;;22.73;;
37349;SDS011;23231;52.358;4.926;2022-11-11T05:36:53;41.08;;;20.13;;
37349;SDS011;23231;52.358;4.926;2022-11-11T05:41:53;49.33;;;23.58;;
37349;SDS011;23231;52.358;4.926;2022-11-11T05:46:54;45.28;;;21.45;;
37349;SDS011;23231;52.358;4.926;2022-11-11T05:51:54;48.63;;;23.23;;
37349;SDS011;23231;52.358;4.926;2022-11-11T05:56:55;49.03;;;22.75;;
37349;SDS011;23231;52.358;4.926;2022-11-11T06:01:56;43.72;;;21.35;;
37349;SDS011;23231;52.358;4.926;2022-11-11T06:06:57;50.47;;;22.67;;
37349;SDS011;23231;52.358;4.926;2022-11-11T06:11:57;46.72;;;23.17;;
37349;SDS011;23231;52.358;4.926;2022-11-11T06:16:58;49.92;;;23.38;;
37349;SDS011;23231;52.358;4.926;2022-11-11T06:21:58;44.90;;;22.50;;
37349;SDS011;23231;52.358;4.926;2022-11-11T06:27:00;44.30;;;22.05;;
37349;SDS011;23231;52.358;4.926;2022-11-11T06:32:01;48.75;;;23.65;;
37349;SDS011;23231;52.358;4.926;2022-11-11T06:37:01;41.30;;;23.15;;
37349;SDS011;23231;52.358;4.926;2022-11-11T06:42:02;48.17;;;23.15;;
37349;SDS011;23231;52.358;4.926;2022-11-11T06:47:02;43.90;;;22.45;;
37349;SDS011;23231;52.358;4.926;2022-11-11T06:52:02;49.03;;;22.92;;
37349;SDS011;23231;52.358;4.926;2022-11-11T06:57:03;46.17;;;22.70;;
37349;SDS011;23231;52.358;4.926;2022-11-11T07:02:03;44.58;;;21.88;;
37349;SDS011;23231;52.358;4.926;2022-11-11T07:07:04;44.35;;;22.38;;
37349;SDS011;23231;52.358;4.926;2022-11-11T07:12:05;47.00;;;21.88;;
37349;SDS011;23231;52.358;4.926;2022-11-11T07:17:06;44.47;;;21.90;;
37349;SDS011;23231;52.358;4.926;2022-11-11T07:22:07;42.50;;;21.02;;
37349;SDS011;23231;52.358;4.926;2022-11-11T07:27:07;46.88;;;22.15;;
37349;SDS011;23231;52.358;4.926;2022-11-11T07:32:07;36.20;;;19.73;;
37349;SDS011;23231;52.358;4.926;2022-11-11T07:37:08;40.90;;;21.35;;
37349;SDS011;23231;52.358;4.926;2022-11-11T07:42:08;39.30;;;19.55;;
37349;SDS011;23231;52.358;4.926;2022-11-11T07:47:09;40.00;;;19.95;;
37349;SDS011;23231;52.358;4.926;2022-11-11T07:52:10;41.95;;;21.50;;
37349;SDS011;23231;52.358;4.926;2022-11-11T07:57:10;43.00;;;21.17;;
37349;SDS011;23231;52.358;4.926;2022-11-11T08:02:11;39.45;;;20.50;;
37349;SDS011;23231;52.358;4.926;2022-11-11T08:07:11;43.05;;;22.20;;
37349;SDS011;23231;52.358;4.926;2022-11-11T08:12:12;38.22;;;21.42;;
37349;SDS011;23231;52.358;4.926;2022-11-11T08:17:35;41.50;;;21.05;;
37349;SDS011;23231;52.358;4.926;2022-11-11T08:22:37;40.33;;;21.13;;
37349;SDS011;23231;52.358;4.926;2022-11-11T08:27:41;37.60;;;20.33;;
37349;SDS011;23231;52.358;4.926;2022-11-11T08:32:41;41.67;;;22.13;;
37349;SDS011;23231;52.358;4.926;2022-11-11T08:37:41;41.33;;;22.55;;
37349;SDS011;23231;52.358;4.926;2022-11-11T08:42:43;42.45;;;23.08;;
37349;SDS011;23231;52.358;4.926;2022-11-11T08:47:44;44.22;;;21.85;;
37349;SDS011;23231;52.358;4.926;2022-11-11T08:52:48;41.63;;;21.17;;
37349;SDS011;23231;52.358;4.926;2022-11-11T08:57:56;42.38;;;21.52;;
37349;SDS011;23231;52.358;4.926;2022-11-11T09:03:00;43.50;;;21.77;;
37349;SDS011;23231;52.358;4.926;2022-11-11T09:08:05;38.85;;;21.55;;
37349;SDS011;23231;52.358;4.926;2022-11-11T09:13:07;40.78;;;19.67;;
37349;SDS011;23231;52.358;4.926;2022-11-11T09:18:07;30.52;;;17.40;;
37349;SDS011;23231;52.358;4.926;2022-11-11T09:23:09;35.60;;;19.45;;
37349;SDS011;23231;52.358;4.926;2022-11-11T09:28:09;40.63;;;20.50;;
37349;SDS011;23231;52.358;4.926;2022-11-11T09:33:10;37.22;;;18.17;;
37349;SDS011;23231;52.358;4.926;2022-11-11T09:38:11;35.63;;;19.67;;
37349;SDS011;23231;52.358;4.926;2022-11-11T09:43:32;34.78;;;18.65;;
37349;SDS011;23231;52.358;4.926;2022-11-11T09:54:12;33.95;;;17.95;;
37349;SDS011;23231;52.358;4.926;2022-11-11T10:04:26;31.13;;;17.40;;
37349;SDS011;23231;52.358;4.926;2022-11-11T10:09:37;33.40;;;17.27;;
37349;SDS011;23231;52.358;4.926;2022-11-11T10:14:41;32.75;;;17.63;;
37349;SDS011;23231;52.358;4.926;2022-11-11T10:30:22;28.30;;;15.80;;
37349;SDS011;23231;52.358;4.926;2022-11-11T10:35:25;26.70;;;15.75;;
37349;SDS011;23231;52.358;4.926;2022-11-11T10:40:38;27.55;;;15.18;;
37349;SDS011;23231;52.358;4.926;2022-11-11T10:50:53;30.00;;;15.90;;
37349;SDS011;23231;52.358;4.926;2022-11-11T11:02:00;31.98;;;15.82;;
37349;SDS011;23231;52.358;4.926;2022-11-11T11:06:55;26.23;;;15.02;;
37349;SDS011;23231;52.358;4.926;2022-11-11T11:12:02;29.25;;;15.68;;
37349;SDS011;23231;52.358;4.926;2022-11-11T11:17:25;32.88;;;15.60;;
37349;SDS011;23231;52.358;4.926;2022-11-11T11:33:11;26.05;;;15.07;;
37349;SDS011;23231;52.358;4.926;2022-11-11T11:38:11;32.38;;;15.63;;
37349;SDS011;23231;52.358;4.926;2022-11-11T12:30:19;26.92;;;14.00;;
37349;SDS011;23231;52.358;4.926;2022-11-11T13:24:18;19.65;;;11.55;;
37349;SDS011;23231;52.358;4.926;2022-11-11T13:34:33;17.30;;;10.57;;
37349;SDS011;23231;52.358;4.926;2022-11-11T13:39:43;17.23;;;10.15;;
37349;SDS011;23231;52.358;4.926;2022-11-11T13:44:49;15.93;;;9.85;;
37349;SDS011;23231;52.358;4.926;2022-11-11T13:49:53;17.00;;;10.40;;
37349;SDS011;23231;52.358;4.926;2022-11-11T13:55:00;16.13;;;10.07;;
37349;SDS011;23231;52.358;4.926;2022-11-11T14:00:16;15.73;;;10.38;;
37349;SDS011;23231;52.358;4.926;2022-11-11T14:05:24;16.02;;;10.18;;
37349;SDS011;23231;52.358;4.926;2022-11-11T14:20:42;19.88;;;10.40;;
37349;SDS011;23231;52.358;4.926;2022-11-11T14:26:14;18.05;;;10.13;;
37349;SDS011;23231;52.358;4.926;2022-11-11T14:36:37;14.55;;;9.80;;
37349;SDS011;23231;52.358;4.926;2022-11-11T14:52:02;17.30;;;10.10;;
37349;SDS011;23231;52.358;4.926;2022-11-11T15:03:01;17.65;;;10.77;;
37349;SDS011;23231;52.358;4.926;2022-11-11T15:29:25;19.42;;;11.07;;
37349;SDS011;23231;52.358;4.926;2022-11-11T15:34:40;23.83;;;11.20;;
37349;SDS011;23231;52.358;4.926;2022-11-11T15:39:48;21.70;;;11.90;;
37349;SDS011;23231;52.358;4.926;2022-11-11T15:44:51;18.50;;;10.88;;
37349;SDS011;23231;52.358;4.926;2022-11-11T15:49:51;17.00;;;9.75;;
37349;SDS011;23231;52.358;4.926;2022-11-11T15:54:52;20.35;;;10.48;;
37349;SDS011;23231;52.358;4.926;2022-11-11T15:59:53;18.48;;;10.48;;
37349;SDS011;23231;52.358;4.926;2022-11-11T16:05:00;15.93;;;10.38;;
37349;SDS011;23231;52.358;4.926;2022-11-11T16:15:18;21.98;;;11.85;;
37349;SDS011;23231;52.358;4.926;2022-11-11T16:20:34;20.58;;;12.30;;
37349;SDS011;23231;52.358;4.926;2022-11-11T16:25:48;22.63;;;12.85;;
37349;SDS011;23231;52.358;4.926;2022-11-11T16:30:48;25.25;;;12.57;;
37349;SDS011;23231;52.358;4.926;2022-11-11T16:35:49;35.55;;;17.80;;
37349;SDS011;23231;52.358;4.926;2022-11-11T16:40:49;30.15;;;14.48;;
37349;SDS011;23231;52.358;4.926;2022-11-11T16:45:57;26.02;;;13.13;;
37349;SDS011;23231;52.358;4.926;2022-11-11T16:51:06;23.10;;;12.50;;
37349;SDS011;23231;52.358;4.926;2022-11-11T16:56:26;20.23;;;11.38;;
37349;SDS011;23231;52.358;4.926;2022-11-11T17:01:28;22.55;;;11.63;;
37349;SDS011;23231;52.358;4.926;2022-11-11T17:11:50;21.88;;;11.82;;
37349;SDS011;23231;52.358;4.926;2022-11-11T17:16:50;23.02;;;11.88;;
37349;SDS011;23231;52.358;4.926;2022-11-11T17:21:51;23.08;;;10.93;;
37349;SDS011;23231;52.358;4.926;2022-11-11T17:26:53;21.00;;;12.00;;
37349;SDS011;23231;52.358;4.926;2022-11-11T17:31:54;20.60;;;11.85;;
37349;SDS011;23231;52.358;4.926;2022-11-11T17:36:54;20.35;;;12.10;;
37349;SDS011;23231;52.358;4.926;2022-11-11T17:41:55;25.10;;;12.43;;
37349;SDS011;23231;52.358;4.926;2022-11-11T17:46:55;22.08;;;11.60;;
37349;SDS011;23231;52.358;4.926;2022-11-11T17:51:55;24.48;;;12.73;;
37349;SDS011;23231;52.358;4.926;2022-11-11T17:56:56;25.13;;;12.15;;
37349;SDS011;23231;52.358;4.926;2022-11-11T18:01:56;21.63;;;11.43;;
37349;SDS011;23231;52.358;4.926;2022-11-11T18:06:57;23.08;;;11.98;;
37349;SDS011;23231;52.358;4.926;2022-11-11T18:11:57;25.90;;;12.82;;
37349;SDS011;23231;52.358;4.926;2022-11-11T18:16:57;20.38;;;10.82;;
37349;SDS011;23231;52.358;4.926;2022-11-11T18:21:58;22.50;;;12.35;;
37349;SDS011;23231;52.358;4.926;2022-11-11T18:26:58;22.10;;;12.13;;
37349;SDS011;23231;52.358;4.926;2022-11-11T18:31:59;23.70;;;11.43;;
37349;SDS011;23231;52.358;4.926;2022-11-11T18:36:59;22.80;;;12.00;;
37349;SDS011;23231;52.358;4.926;2022-11-11T18:41:59;21.20;;;12.23;;
37349;SDS011;23231;52.358;4.926;2022-11-11T18:47:00;23.13;;;12.43;;
37349;SDS011;23231;52.358;4.926;2022-11-11T18:52:00;19.15;;;10.50;;
37349;SDS011;23231;52.358;4.926;2022-11-11T18:57:01;19.52;;;10.18;;
37349;SDS011;23231;52.358;4.926;2022-11-11T19:02:01;18.70;;;10.27;;
37349;SDS011;23231;52.358;4.926;2022-11-11T19:07:02;17.98;;;10.70;;
37349;SDS011;23231;52.358;4.926;2022-11-11T19:12:02;21.15;;;10.80;;
37349;SDS011;23231;52.358;4.926;2022-11-11T19:17:03;20.42;;;11.70;;
37349;SDS011;23231;52.358;4.926;2022-11-11T19:22:03;26.85;;;13.35;;
37349;SDS011;23231;52.358;4.926;2022-11-11T19:27:04;23.70;;;12.82;;
37349;SDS011;23231;52.358;4.926;2022-11-11T19:32:04;20.83;;;11.25;;
37349;SDS011;23231;52.358;4.926;2022-11-11T19:37:05;22.77;;;11.88;;
37349;SDS011;23231;52.358;4.926;2022-11-11T19:42:08;19.60;;;10.52;;
37349;SDS011;23231;52.358;4.926;2022-11-11T19:47:08;24.08;;;12.80;;
37349;SDS011;23231;52.358;4.926;2022-11-11T19:52:09;24.48;;;12.80;;
37349;SDS011;23231;52.358;4.926;2022-11-11T19:57:09;19.67;;;11.93;;
37349;SDS011;23231;52.358;4.926;2022-11-11T20:02:10;20.33;;;11.25;;
37349;SDS011;23231;52.358;4.926;2022-11-11T20:07:10;15.68;;;10.07;;
37349;SDS011;23231;52.358;4.926;2022-11-11T20:12:10;17.63;;;10.35;;
37349;SDS011;23231;52.358;4.926;2022-11-11T20:17:11;17.83;;;10.65;;
37349;SDS011;23231;52.358;4.926;2022-11-11T20:22:11;16.40;;;10.70;;
37349;SDS011;23231;52.358;4.926;2022-11-11T20:27:12;17.10;;;10.13;;
37349;SDS011;23231;52.358;4.926;2022-11-11T20:32:12;15.88;;;9.05;;
37349;SDS011;23231;52.358;4.926;2022-11-11T20:37:12;17.45;;;10.85;;
37349;SDS011;23231;52.358;4.926;2022-11-11T20:42:13;22.05;;;11.80;;
37349;SDS011;23231;52.358;4.926;2022-11-11T20:47:13;19.98;;;11.05;;
37349;SDS011;23231;52.358;4.926;2022-11-11T20:52:14;21.10;;;12.13;;
37349;SDS011;23231;52.358;4.926;2022-11-11T20:57:14;20.00;;;11.68;;
37349;SDS011;23231;52.358;4.926;2022-11-11T21:02:15;21.17;;;12.18;;
37349;SDS011;23231;52.358;4.926;2022-11-11T21:07:15;21.38;;;12.93;;
37349;SDS011;23231;52.358;4.926;2022-11-11T21:12:18;23.02;;;12.80;;
37349;SDS011;23231;52.358;4.926;2022-11-11T21:17:19;23.27;;;13.02;;
37349;SDS011;23231;52.358;4.926;2022-11-11T21:22:19;26.65;;;13.65;;
37349;SDS011;23231;52.358;4.926;2022-11-11T21:27:20;22.35;;;12.93;;
37349;SDS011;23231;52.358;4.926;2022-11-11T21:32:20;23.33;;;13.98;;
37349;SDS011;23231;52.358;4.926;2022-11-11T21:37:20;22.17;;;12.82;;
37349;SDS011;23231;52.358;4.926;2022-11-11T21:42:21;22.15;;;12.60;;
37349;SDS011;23231;52.358;4.926;2022-11-11T21:47:21;22.20;;;13.88;;
37349;SDS011;23231;52.358;4.926;2022-11-11T21:52:22;21.45;;;12.73;;
37349;SDS011;23231;52.358;4.926;2022-11-11T21:57:22;19.98;;;12.27;;
37349;SDS011;23231;52.358;4.926;2022-11-11T22:02:22;28.05;;;13.68;;
37349;SDS011;23231;52.358;4.926;2022-11-11T22:07:23;24.63;;;14.82;;
37349;SDS011;23231;52.358;4.926;2022-11-11T22:12:25;22.90;;;13.95;;
37349;SDS011;23231;52.358;4.926;2022-11-11T22:17:25;25.88;;;14.65;;
37349;SDS011;23231;52.358;4.926;2022-11-11T22:22:26;22.65;;;13.00;;
37349;SDS011;23231;52.358;4.926;2022-11-11T22:27:26;26.70;;;13.18;;
37349;SDS011;23231;52.358;4.926;2022-11-11T22:32:26;21.27;;;12.43;;
37349;SDS011;23231;52.358;4.926;2022-11-11T22:37:27;21.20;;;12.88;;
37349;SDS011;23231;52.358;4.926;2022-11-11T22:42:27;26.92;;;12.75;;
37349;SDS011;23231;52.358;4.926;2022-11-11T22:47:28;23.50;;;12.75;;
37349;SDS011;23231;52.358;4.926;2022-11-11T22:52:28;27.80;;;14.93;;
37349;SDS011;23231;52.358;4.926;2022-11-11T22:57:29;21.10;;;13.30;;
37349;SDS011;23231;52.358;4.926;2022-11-11T23:02:30;22.85;;;13.82;;
37349;SDS011;23231;52.358;4.926;2022-11-11T23:07:31;22.95;;;13.65;;
37349;SDS011;23231;52.358;4.926;2022-11-11T23:12:31;22.85;;;13.25;;
37349;SDS011;23231;52.358;4.926;2022-11-11T23:17:32;23.85;;;12.93;;
37349;SDS011;23231;52.358;4.926;2022-11-11T23:22:32;22.35;;;12.93;;
37349;SDS011;23231;52.358;4.926;2022-11-11T23:27:32;22.17;;;14.27;;
37349;SDS011;23231;52.358;4.926;2022-11-11T23:32:33;22.73;;;12.73;;
37349;SDS011;23231;52.358;4.926;2022-11-11T23:37:33;22.65;;;13.60;;
37349;SDS011;23231;52.358;4.926;2022-11-11T23:42:34;20.15;;;12.63;;
37349;SDS011;23231;52.358;4.926;2022-11-11T23:47:34;21.42;;;12.98;;
37349;SDS011;23231;52.358;4.926;2022-11-11T23:52:35;23.55;;;13.85;;
37349;SDS011;23231;52.358;4.926;2022-11-11T23:57:35;23.98;;;13.55;;
